Time;durP1;ratioP1;P1;durP2;ratioP2;P2;SDS_P1;SDS_P2;PMS_P1;PMS_P2;Temp;Humidity;BMP_temperature;BMP_pressure;BME280_temperature;BME280_humidity;BME280_pressure;Samples;Min_cycle;Max_cycle;Signal;HPM_P1;HPM_P2
2022/12/15 00:39:45;;;;;;;20.20;11.40;;;;;;;-3.46;100.00;95243.70;105450;1288;24558;-79
2022/12/15 00:42:14;;;;;;;21.00;11.00;;;;;;;-3.46;100.00;95235.97;105222;1295;24274;-79
2022/12/15 00:44:42;;;;;;;19.60;10.80;;;;;;;-3.45;100.00;95242.69;105313;1291;22494;-79
2022/12/15 00:47:10;;;;;;;21.40;12.20;;;;;;;-3.43;100.00;95239.66;105291;1291;22478;-79
2022/12/15 01:20:21;;;;;;;22.40;13.30;;;;;;;-3.30;100.00;95283.55;105550;1288;22478;-79
2022/12/15 01:22:51;;;;;;;21.10;13.10;;;;;;;-3.30;100.00;95289.11;105504;1304;22483;-79
2022/12/15 01:25:22;;;;;;;22.70;13.50;;;;;;;-3.30;100.00;95291.17;105771;1298;22553;-79
2022/12/15 01:27:51;;;;;;;23.60;13.20;;;;;;;-3.27;100.00;95301.19;105661;1294;22525;-79
2022/12/15 01:30:22;;;;;;;21.10;12.80;;;;;;;-3.26;100.00;95307.07;105661;1296;27111;-79
2022/12/15 01:32:51;;;;;;;18.50;11.90;;;;;;;-3.24;100.00;95309.80;105606;1303;22481;-79
2022/12/15 01:35:20;;;;;;;21.70;13.10;;;;;;;-3.24;100.00;95312.94;105689;1303;22459;-79
2022/12/15 01:37:49;;;;;;;21.60;12.20;;;;;;;-3.23;100.00;95307.72;105812;1286;23098;-79
2022/12/15 01:43:12;;;;;;;21.50;12.30;;;;;;;-3.21;100.00;95305.74;105760;1302;22472;-79
2022/12/15 01:45:56;;;;;;;21.10;12.60;;;;;;;-3.21;100.00;95307.09;105749;1294;22527;-79
2022/12/15 01:48:34;;;;;;;21.40;13.40;;;;;;;-3.21;100.00;95310.52;105677;1302;24214;-79
2022/12/15 01:51:12;;;;;;;21.60;13.70;;;;;;;-3.21;100.00;95309.12;105747;1295;22540;-79
2022/12/15 01:53:47;;;;;;;24.70;14.70;;;;;;;-3.21;100.00;95308.85;105786;1302;22512;-79
2022/12/15 01:56:17;;;;;;;25.50;15.50;;;;;;;-3.25;100.00;95307.40;105812;1294;22446;-79
2022/12/15 01:58:48;;;;;;;26.30;16.80;;;;;;;-3.26;100.00;95314.41;105760;1298;24336;-79
2022/12/15 02:01:17;;;;;;;23.80;15.20;;;;;;;-3.28;100.00;95312.52;105762;1303;22604;-79
2022/12/15 02:03:47;;;;;;;23.30;14.40;;;;;;;-3.29;100.00;95314.94;105593;1285;25435;-79
2022/12/15 02:06:20;;;;;;;25.10;15.30;;;;;;;-3.29;100.00;95318.25;105720;1289;24449;-79
2022/12/15 02:08:51;;;;;;;25.90;16.60;;;;;;;-3.30;100.00;95322.48;105701;1286;22500;-79
2022/12/15 02:11:46;;;;;;;23.50;15.50;;;;;;;-3.31;100.00;95328.36;105497;1295;22952;-79
2022/12/15 02:14:23;;;;;;;23.00;14.00;;;;;;;-3.31;100.00;95337.65;105835;1285;22478;-79
2022/12/15 02:17:10;;;;;;;25.80;16.00;;;;;;;-3.30;100.00;95341.45;105795;1297;22527;-79
2022/12/15 02:20:22;;;;;;;28.50;16.20;;;;;;;-3.30;100.00;95344.30;105778;1303;29093;-79
2022/12/15 02:23:26;;;;;;;25.60;15.60;;;;;;;-3.31;100.00;95346.81;105740;1292;24371;-79
2022/12/15 02:26:10;;;;;;;26.40;16.40;;;;;;;-3.31;100.00;95344.23;105766;1302;22568;-79
2022/12/15 02:28:52;;;;;;;27.50;17.60;;;;;;;-3.30;100.00;95344.66;105544;1302;22486;-79
2022/12/15 02:34:19;;;;;;;57.10;26.30;;;;;;;-3.23;100.00;95354.68;105752;1298;22516;-79
2022/12/15 02:36:53;;;;;;;50.60;25.90;;;;;;;-3.20;100.00;95353.45;105803;1304;22498;-79
2022/12/15 02:39:25;;;;;;;44.30;22.70;;;;;;;-3.20;100.00;95352.48;105751;1288;22548;-79
2022/12/15 02:41:54;;;;;;;41.30;22.10;;;;;;;-3.20;100.00;95350.81;105715;1278;22642;-79
2022/12/15 02:44:26;;;;;;;48.70;25.50;;;;;;;-3.19;100.00;95357.98;105538;1297;22476;-79
2022/12/15 02:47:25;;;;;;;28.70;16.60;;;;;;;-3.19;100.00;95356.54;105650;1303;22520;-79
2022/12/15 02:50:16;;;;;;;25.80;16.60;;;;;;;-3.19;100.00;95364.06;105519;1299;22513;-79
2022/12/15 02:53:00;;;;;;;24.60;14.30;;;;;;;-3.18;100.00;95367.20;105748;1286;22474;-79
2022/12/15 02:55:39;;;;;;;22.30;14.00;;;;;;;-3.16;100.00;95366.89;105624;1279;22526;-79
2022/12/15 02:58:17;;;;;;;21.90;13.80;;;;;;;-3.15;100.00;95366.48;105762;1289;22490;-79
2022/12/15 03:00:51;;;;;;;22.00;13.50;;;;;;;-3.15;100.00;95367.47;105646;1288;23814;-79
2022/12/15 03:03:21;;;;;;;22.30;13.50;;;;;;;-3.15;100.00;95369.91;105744;1288;24283;-79
2022/12/15 03:05:53;;;;;;;21.50;12.60;;;;;;;-3.15;100.00;95373.13;105773;1304;22492;-79
2022/12/15 03:08:22;;;;;;;19.90;12.90;;;;;;;-3.13;100.00;95378.29;105624;1279;23167;-79
2022/12/15 03:10:52;;;;;;;21.70;13.50;;;;;;;-3.13;100.00;95379.44;105520;1288;25984;-79
2022/12/15 03:13:21;;;;;;;21.60;14.20;;;;;;;-3.13;100.00;95375.96;105687;1303;22561;-79
2022/12/15 03:15:49;;;;;;;23.40;14.30;;;;;;;-3.14;100.00;95373.82;105623;1296;24361;-79
2022/12/15 03:18:18;;;;;;;19.70;13.00;;;;;;;-3.15;100.00;95378.30;105746;1302;22483;-79
2022/12/15 03:20:46;;;;;;;20.60;14.20;;;;;;;-3.14;100.00;95378.54;105708;1288;24256;-79
2022/12/15 03:23:15;;;;;;;21.00;13.60;;;;;;;-3.14;100.00;95387.55;105480;1304;22471;-79
2022/12/15 03:25:46;;;;;;;22.80;13.50;;;;;;;-3.14;100.00;95391.70;105392;1304;22472;-79
2022/12/15 03:28:16;;;;;;;21.60;13.50;;;;;;;-3.12;100.00;95393.90;105494;1286;23270;-79
2022/12/15 03:30:45;;;;;;;24.00;13.40;;;;;;;-3.13;100.00;95391.52;105421;1305;32093;-79
2022/12/15 03:33:13;;;;;;;19.20;13.30;;;;;;;-3.14;100.00;95393.81;105509;1296;22475;-79
2022/12/15 03:35:41;;;;;;;23.50;14.50;;;;;;;-3.15;100.00;95392.40;105501;1305;22619;-79
2022/12/15 03:38:09;;;;;;;21.90;13.60;;;;;;;-3.15;100.00;95393.08;105469;1298;22470;-79
2022/12/15 03:40:38;;;;;;;21.40;13.80;;;;;;;-3.16;100.00;95399.23;105435;1290;25428;-79
2022/12/15 03:43:06;;;;;;;18.60;12.80;;;;;;;-3.15;100.00;95400.17;105466;1281;22851;-79
2022/12/15 03:45:34;;;;;;;24.20;16.00;;;;;;;-3.15;100.00;95407.70;105480;1291;23903;-79
2022/12/15 03:48:03;;;;;;;24.90;16.10;;;;;;;-3.14;100.00;95410.16;105476;1305;24148;-79
2022/12/15 03:50:31;;;;;;;24.60;16.20;;;;;;;-3.12;100.00;95414.95;105447;1294;22489;-79
2022/12/15 03:53:02;;;;;;;25.30;16.30;;;;;;;-3.11;100.00;95418.14;105427;1296;24283;-79
2022/12/15 03:55:31;;;;;;;23.50;15.30;;;;;;;-3.13;100.00;95425.83;105472;1288;25428;-79
2022/12/15 03:57:59;;;;;;;23.40;13.90;;;;;;;-3.14;100.00;95427.83;105494;1288;22468;-79
2022/12/15 04:00:28;;;;;;;22.60;14.20;;;;;;;-3.14;100.00;95432.54;105341;1290;28431;-79
2022/12/15 04:03:00;;;;;;;25.00;15.70;;;;;;;-3.15;100.00;95432.63;105446;1290;22482;-79
2022/12/15 04:05:30;;;;;;;24.40;15.60;;;;;;;-3.14;100.00;95437.31;105433;1288;24384;-79
2022/12/15 04:08:01;;;;;;;27.00;16.80;;;;;;;-3.13;100.00;95442.48;105481;1281;22478;-79
2022/12/15 04:10:31;;;;;;;24.30;15.20;;;;;;;-3.14;100.00;95438.88;105489;1304;22477;-79
2022/12/15 04:13:01;;;;;;;27.70;16.60;;;;;;;-3.14;100.00;95441.10;105404;1291;22470;-79
2022/12/15 04:15:29;;;;;;;23.40;15.30;;;;;;;-3.12;100.00;95447.98;105389;1305;22517;-79
2022/12/15 04:17:58;;;;;;;24.90;16.00;;;;;;;-3.11;100.00;95454.96;105476;1304;23243;-79
2022/12/15 04:20:26;;;;;;;24.40;16.60;;;;;;;-3.10;100.00;95455.40;105416;1286;38028;-80
2022/12/15 04:22:55;;;;;;;26.00;16.20;;;;;;;-3.09;100.00;95455.80;105453;1278;25193;-79
2022/12/15 05:32:33;;;;;;;35.70;22.30;;;;;;;-3.10;100.00;95537.55;105448;1302;25302;-79
2022/12/15 05:35:02;;;;;;;32.70;22.00;;;;;;;-3.11;100.00;95540.15;105546;1298;22796;-79
2022/12/15 05:37:30;;;;;;;33.80;21.50;;;;;;;-3.11;100.00;95547.24;105470;1287;24234;-79
2022/12/15 05:39:59;;;;;;;35.00;22.70;;;;;;;-3.12;100.00;95547.06;105532;1302;22574;-79
2022/12/15 05:42:27;;;;;;;33.30;22.90;;;;;;;-3.13;100.00;95553.58;105495;1302;22590;-79
2022/12/15 05:44:56;;;;;;;35.70;23.00;;;;;;;-3.14;100.00;95556.66;105492;1281;22500;-79
2022/12/15 05:47:25;;;;;;;36.10;23.60;;;;;;;-3.13;100.00;95567.98;105519;1296;22480;-79
2022/12/15 05:49:54;;;;;;;37.70;24.60;;;;;;;-3.12;100.00;95574.59;105500;1297;25256;-79
2022/12/15 05:52:22;;;;;;;37.90;23.30;;;;;;;-3.12;100.00;95581.27;105468;1285;24202;-79
2022/12/15 05:54:50;;;;;;;35.50;22.70;;;;;;;-3.10;100.00;95579.16;105495;1290;22458;-79
2022/12/15 05:57:19;;;;;;;34.90;21.80;;;;;;;-3.10;100.00;95585.29;105503;1302;22473;-78
2022/12/15 05:59:48;;;;;;;31.60;20.90;;;;;;;-3.09;100.00;95591.80;105523;1302;22805;-78
2022/12/15 06:02:17;;;;;;;35.10;22.00;;;;;;;-3.08;100.00;95601.01;105527;1302;22558;-79
2022/12/15 06:04:46;;;;;;;32.30;20.80;;;;;;;-3.08;100.00;95608.62;105541;1295;22975;-79
2022/12/15 06:07:14;;;;;;;34.70;22.50;;;;;;;-3.09;100.00;95615.14;105502;1297;22493;-79
2022/12/15 06:09:43;;;;;;;34.50;23.30;;;;;;;-3.09;100.00;95612.17;105510;1302;24284;-79
2022/12/15 06:12:11;;;;;;;34.50;22.30;;;;;;;-3.08;100.00;95614.12;105489;1275;25456;-78
2022/12/15 06:14:39;;;;;;;34.70;23.00;;;;;;;-3.08;100.00;95614.92;105537;1290;22504;-78
2022/12/15 06:17:08;;;;;;;33.30;22.30;;;;;;;-3.08;100.00;95619.31;105516;1295;22496;-78
2022/12/15 06:19:37;;;;;;;31.70;20.90;;;;;;;-3.09;100.00;95623.02;105501;1302;22480;-78
2022/12/15 06:22:06;;;;;;;29.70;20.40;;;;;;;-3.09;100.00;95630.52;105508;1302;22490;-79
2022/12/15 06:24:35;;;;;;;35.40;21.10;;;;;;;-3.10;100.00;95634.23;105552;1302;22723;-79
2022/12/15 06:27:04;;;;;;;35.60;22.70;;;;;;;-3.10;100.00;95633.27;105538;1302;23223;-78
2022/12/15 06:29:33;;;;;;;36.10;24.10;;;;;;;-3.11;100.00;95636.62;105504;1302;22795;-79
2022/12/15 06:32:03;;;;;;;40.30;25.30;;;;;;;-3.12;100.00;95642.41;105459;1302;29143;-78
2022/12/15 06:34:31;;;;;;;36.20;23.70;;;;;;;-3.10;100.00;95643.64;105479;1303;22505;-78
2022/12/15 06:37:00;;;;;;;40.00;25.80;;;;;;;-3.10;100.00;95644.95;105536;1302;22460;-79
2022/12/15 06:39:29;;;;;;;38.30;25.10;;;;;;;-3.09;100.00;95642.77;105523;1289;26635;-78
2022/12/15 06:41:57;;;;;;;38.70;26.00;;;;;;;-3.08;100.00;95653.33;105425;1302;25376;-79
2022/12/15 06:44:26;;;;;;;40.70;27.30;;;;;;;-3.07;100.00;95654.19;105466;1276;23212;-79
2022/12/15 06:46:59;;;;;;;39.00;25.70;;;;;;;-3.06;100.00;95657.85;105547;1302;22630;-79
2022/12/15 06:49:27;;;;;;;41.50;25.60;;;;;;;-3.06;100.00;95661.68;105531;1290;24250;-79
2022/12/15 06:51:56;;;;;;;41.00;26.20;;;;;;;-3.05;100.00;95677.94;105475;1302;22479;-78
2022/12/15 06:54:24;;;;;;;39.00;24.50;;;;;;;-3.04;100.00;95695.48;105546;1302;22502;-78
2022/12/15 06:56:53;;;;;;;40.70;25.70;;;;;;;-3.04;100.00;95709.11;105541;1287;25232;-79
2022/12/15 06:59:22;;;;;;;40.80;24.40;;;;;;;-3.04;100.00;95712.95;105260;1290;25802;-78
2022/12/15 07:01:50;;;;;;;43.50;26.40;;;;;;;-3.03;100.00;95716.96;105268;1295;23027;-78
2022/12/15 07:04:19;;;;;;;41.20;27.60;;;;;;;-3.01;100.00;95719.65;105258;1303;25379;-78
2022/12/15 07:06:48;;;;;;;40.50;27.90;;;;;;;-2.99;100.00;95718.11;105238;1295;22471;-79
2022/12/15 07:09:16;;;;;;;42.00;27.50;;;;;;;-2.98;100.00;95720.53;105289;1303;22467;-79
2022/12/15 07:11:48;;;;;;;43.70;27.40;;;;;;;-2.99;100.00;95723.92;105223;1303;22506;-79
2022/12/15 07:14:16;;;;;;;42.30;28.00;;;;;;;-3.01;100.00;95732.48;105432;1302;22501;-79
2022/12/15 07:16:45;;;;;;;44.50;29.70;;;;;;;-3.01;100.00;95735.68;105300;1297;22467;-79
2022/12/15 07:19:13;;;;;;;42.80;26.70;;;;;;;-3.02;100.00;95741.48;105261;1290;25377;-79
2022/12/15 07:21:42;;;;;;;39.50;26.60;;;;;;;-3.02;100.00;95744.23;105244;1275;22462;-79
2022/12/15 07:24:12;;;;;;;38.10;24.50;;;;;;;-3.03;100.00;95743.69;105480;1281;22479;-79
2022/12/15 07:26:41;;;;;;;39.60;25.80;;;;;;;-3.04;100.00;95745.73;105522;1302;22441;-79
2022/12/15 07:29:11;;;;;;;42.00;25.10;;;;;;;-3.04;100.00;95746.30;105457;1296;26969;-79
2022/12/15 07:31:40;;;;;;;42.60;27.60;;;;;;;-3.02;100.00;95747.95;105464;1274;22549;-78
2022/12/15 07:34:08;;;;;;;41.60;28.90;;;;;;;-3.00;100.00;95754.81;105533;1288;22474;-78
2022/12/15 07:36:36;;;;;;;40.80;26.50;;;;;;;-3.00;100.00;95757.77;105556;1302;22468;-78
2022/12/15 07:39:06;;;;;;;40.50;27.30;;;;;;;-3.00;100.00;95752.22;105514;1302;22519;-79
2022/12/15 07:41:34;;;;;;;44.50;29.00;;;;;;;-2.97;100.00;95755.95;105463;1300;22514;-79
2022/12/15 07:44:03;;;;;;;37.20;25.10;;;;;;;-2.94;100.00;95767.70;105526;1302;22557;-79
2022/12/15 07:46:32;;;;;;;40.50;26.10;;;;;;;-2.90;100.00;95774.69;105509;1285;22537;-78
2022/12/15 07:49:00;;;;;;;43.20;27.20;;;;;;;-2.87;100.00;95771.63;105412;1284;22508;-79
2022/12/15 07:51:29;;;;;;;38.20;25.30;;;;;;;-2.84;100.00;95773.83;105427;1297;25226;-79
2022/12/15 07:53:58;;;;;;;40.20;26.20;;;;;;;-2.81;100.00;95776.84;105554;1302;25362;-79
2022/12/15 07:56:26;;;;;;;36.30;25.10;;;;;;;-2.80;100.00;95785.96;105495;1301;24206;-79
2022/12/15 07:58:54;;;;;;;34.80;22.80;;;;;;;-2.78;100.00;95790.61;105513;1297;25289;-79
2022/12/15 08:01:23;;;;;;;35.80;23.50;;;;;;;-2.77;100.00;95787.81;105515;1282;25049;-79
2022/12/15 08:03:53;;;;;;;32.20;21.90;;;;;;;-2.74;100.00;95789.81;105500;1302;22606;-79
2022/12/15 08:06:25;;;;;;;30.00;20.90;;;;;;;-2.71;100.00;95796.83;105482;1302;22499;-79
2022/12/15 08:08:54;;;;;;;32.80;22.20;;;;;;;-2.69;100.00;95798.36;105521;1297;25335;-79
2022/12/15 08:11:24;;;;;;;31.80;20.70;;;;;;;-2.67;100.00;95806.79;105488;1301;22974;-79
2022/12/15 08:13:55;;;;;;;30.70;20.50;;;;;;;-2.65;100.00;95809.89;105610;1302;22467;-79
2022/12/15 08:16:23;;;;;;;34.00;22.40;;;;;;;-2.66;100.00;95814.48;105523;1302;22472;-79
2022/12/15 08:18:52;;;;;;;35.90;23.00;;;;;;;-2.66;100.00;95831.41;105523;1284;22470;-79
2022/12/15 08:21:20;;;;;;;35.50;23.80;;;;;;;-2.65;100.00;95835.42;105508;1302;25261;-79
2022/12/15 08:23:49;;;;;;;33.80;22.90;;;;;;;-2.65;100.00;95838.74;105486;1287;22506;-79
2022/12/15 08:26:19;;;;;;;34.50;22.60;;;;;;;-2.64;100.00;95846.00;105519;1302;22524;-79
2022/12/15 08:28:47;;;;;;;31.10;21.50;;;;;;;-2.64;100.00;95847.75;105535;1289;22094;-79
2022/12/15 08:31:18;;;;;;;35.50;23.80;;;;;;;-2.63;100.00;95853.69;105488;1302;22448;-79
2022/12/15 08:33:47;;;;;;;33.10;23.70;;;;;;;-2.61;100.00;95850.52;105514;1302;24253;-79
2022/12/15 08:36:18;;;;;;;37.00;24.50;;;;;;;-2.60;100.00;95850.94;105503;1302;22444;-79
2022/12/15 08:38:48;;;;;;;40.80;26.00;;;;;;;-2.54;100.00;95862.82;105596;1280;24292;-79
2022/12/15 08:41:21;;;;;;;36.20;23.80;;;;;;;-2.49;100.00;95870.84;105452;1302;39167;-79
2022/12/15 08:43:51;;;;;;;33.80;23.40;;;;;;;-2.49;100.00;95866.21;105544;1277;22473;-79
2022/12/15 08:46:21;;;;;;;36.50;24.50;;;;;;;-2.51;100.00;95874.45;105553;1281;22486;-79
2022/12/15 08:48:51;;;;;;;38.30;25.10;;;;;;;-2.51;100.00;95879.70;105508;1287;24025;-79
2022/12/15 08:51:22;;;;;;;40.80;26.90;;;;;;;-2.49;100.00;95886.77;105526;1286;22529;-79
2022/12/15 08:53:51;;;;;;;40.20;26.50;;;;;;;-2.45;100.00;95897.58;105557;1302;22595;-79
2022/12/15 08:56:21;;;;;;;34.90;25.60;;;;;;;-2.41;100.00;95898.42;105286;1281;22525;-79
2022/12/15 08:58:56;;;;;;;36.00;26.60;;;;;;;-2.36;100.00;95890.61;105548;1288;23122;-79
2022/12/15 09:01:26;;;;;;;36.20;23.90;;;;;;;-2.33;100.00;95892.48;105531;1302;25373;-79
2022/12/15 09:03:56;;;;;;;38.60;25.50;;;;;;;-2.29;100.00;95894.20;105513;1302;25381;-79
2022/12/15 09:06:27;;;;;;;33.70;23.70;;;;;;;-2.27;100.00;95899.92;105502;1302;25365;-79
2022/12/15 09:08:57;;;;;;;34.40;24.00;;;;;;;-2.26;100.00;95897.52;105492;1302;26360;-79
2022/12/15 09:11:29;;;;;;;38.60;26.20;;;;;;;-2.25;100.00;95887.60;105477;1303;25926;-79
2022/12/15 09:13:58;;;;;;;36.60;25.90;;;;;;;-2.23;100.00;95889.84;105526;1281;22527;-79
2022/12/15 09:16:27;;;;;;;36.40;24.50;;;;;;;-2.19;100.00;95881.31;105506;1302;22477;-79
2022/12/15 09:18:58;;;;;;;37.90;25.40;;;;;;;-2.17;100.00;95882.94;105464;1302;22523;-79
2022/12/15 09:21:28;;;;;;;37.90;25.50;;;;;;;-2.13;100.00;95888.33;105533;1296;22477;-79
2022/12/15 09:24:00;;;;;;;36.60;26.00;;;;;;;-2.08;100.00;95888.33;105522;1281;22486;-79
2022/12/15 09:26:30;;;;;;;35.60;25.80;;;;;;;-2.03;100.00;95883.95;105464;1303;22469;-79
2022/12/15 09:29:00;;;;;;;35.40;24.10;;;;;;;-1.95;100.00;95890.58;105517;1281;22456;-79
2022/12/15 09:31:31;;;;;;;34.30;24.80;;;;;;;-1.88;100.00;95886.41;105658;1294;25008;-79
2022/12/15 09:34:00;;;;;;;36.10;24.60;;;;;;;-1.80;100.00;95884.98;105613;1301;22540;-79
2022/12/15 09:36:31;;;;;;;35.30;24.40;;;;;;;-1.72;100.00;95880.48;105737;1295;24901;-79
2022/12/15 09:39:01;;;;;;;33.30;23.40;;;;;;;-1.66;100.00;95865.73;105768;1295;24215;-79
2022/12/15 09:41:32;;;;;;;34.50;23.70;;;;;;;-1.73;100.00;95867.52;105714;1279;26009;-79
2022/12/15 09:44:05;;;;;;;40.20;26.30;;;;;;;-1.79;100.00;95865.61;105698;1289;22470;-79
2022/12/15 09:46:47;;;;;;;37.90;27.10;;;;;;;-1.79;100.00;95870.54;105643;1288;24691;-79
2022/12/15 09:49:29;;;;;;;40.00;27.90;;;;;;;-1.75;100.00;95867.73;105760;1275;23829;-80
2022/12/15 09:52:02;;;;;;;38.10;27.50;;;;;;;-1.68;100.00;95873.75;105748;1286;22475;-79
2022/12/15 09:54:33;;;;;;;45.80;30.80;;;;;;;-1.56;100.00;95873.33;105794;1295;22500;-79
2022/12/15 09:57:07;;;;;;;47.30;31.90;;;;;;;-1.46;100.00;95872.27;105805;1296;22853;-79
2022/12/15 09:59:49;;;;;;;47.00;31.00;;;;;;;-1.32;100.00;95876.11;105699;1280;33183;-79
2022/12/15 10:02:34;;;;;;;44.80;31.90;;;;;;;-1.18;100.00;95872.23;105757;1294;23338;-79
2022/12/15 10:05:14;;;;;;;42.90;29.70;;;;;;;-1.03;100.00;95869.90;105857;1304;22450;-80
2022/12/15 10:07:46;;;;;;;44.00;30.40;;;;;;;-0.88;100.00;95870.79;105798;1302;22463;-79
2022/12/15 10:10:20;;;;;;;46.20;29.30;;;;;;;-0.74;100.00;95876.52;105770;1295;25386;-79
2022/12/15 10:12:52;;;;;;;45.80;30.60;;;;;;;-0.63;100.00;95875.90;105767;1286;25009;-79
2022/12/15 10:15:24;;;;;;;40.90;28.30;;;;;;;-0.58;100.00;95874.55;105781;1302;22501;-79
2022/12/15 10:18:02;;;;;;;40.20;28.30;;;;;;;-0.65;100.00;95870.83;105824;1301;23516;-79
2022/12/15 10:20:32;;;;;;;39.80;27.40;;;;;;;-0.70;100.00;95871.27;105768;1286;22785;-80
2022/12/15 10:23:10;;;;;;;46.10;31.60;;;;;;;-0.84;100.00;95858.92;105773;1295;22432;-79
2022/12/15 10:25:43;;;;;;;47.00;31.80;;;;;;;-1.05;100.00;95885.30;105829;1295;23357;-79
2022/12/15 10:28:29;;;;;;;43.50;30.70;;;;;;;-1.10;100.00;95884.58;105751;1286;23092;-79
2022/12/15 10:31:01;;;;;;;54.30;37.00;;;;;;;-1.16;100.00;95889.17;105731;1285;22596;-80
2022/12/15 10:33:34;;;;;;;52.20;35.20;;;;;;;-1.26;100.00;95892.56;105672;1285;25221;-80
2022/12/15 10:36:08;;;;;;;51.60;35.30;;;;;;;-1.25;100.00;95892.20;105773;1304;24943;-80
2022/12/15 10:38:39;;;;;;;47.70;32.30;;;;;;;-1.20;100.00;95897.16;105798;1296;23650;-80
2022/12/15 10:41:10;;;;;;;46.00;30.40;;;;;;;-1.17;100.00;95896.59;105509;1303;22784;-80
2022/12/15 10:43:41;;;;;;;46.30;30.70;;;;;;;-1.24;100.00;95892.33;105802;1293;25259;-80
2022/12/15 10:46:17;;;;;;;48.60;34.00;;;;;;;-1.37;100.00;95893.95;105780;1294;25962;-80
2022/12/15 10:48:47;;;;;;;50.20;32.50;;;;;;;-1.43;100.00;95904.64;105742;1292;25350;-80
2022/12/15 10:51:19;;;;;;;;;;;;;;;-1.39;100.00;95906.74;105680;1294;25227;-81
2022/12/15 10:53:51;;;;;;;46.20;30.80;;;;;;;-1.42;100.00;95907.45;105512;1299;22477;-78
2022/12/15 10:56:25;;;;;;;50.10;34.50;;;;;;;-1.51;100.00;95906.08;105258;1293;25756;-78
2022/12/15 10:58:55;;;;;;;53.60;36.70;;;;;;;-1.57;100.00;95913.86;105216;1287;25477;-78
2022/12/15 11:01:27;;;;;;;52.60;35.80;;;;;;;-1.58;100.00;95912.00;105225;1281;22473;-78
2022/12/15 11:03:55;;;;;;;55.30;34.30;;;;;;;-1.64;100.00;95912.64;105246;1303;22497;-78
2022/12/15 11:06:26;;;;;;;55.50;36.20;;;;;;;-1.73;100.00;95919.42;105165;1304;23244;-78
2022/12/15 11:09:06;;;;;;;63.60;38.10;;;;;;;-1.84;100.00;95921.33;105231;1296;22465;-78
2022/12/15 11:14:43;;;;;;;60.10;37.20;;;;;;;-2.07;100.00;95932.77;105120;1296;22475;-78
2022/12/15 11:17:17;;;;;;;67.70;39.20;;;;;;;-2.09;100.00;95936.19;105127;1305;26059;-78
2022/12/15 11:19:54;;;;;;;68.10;40.30;;;;;;;-2.10;100.00;95936.02;105249;1304;23512;-78
2022/12/15 11:22:31;;;;;;;70.40;40.70;;;;;;;-2.06;100.00;95946.71;105222;1298;22468;-78
2022/12/15 11:25:04;;;;;;;76.90;42.60;;;;;;;-2.00;100.00;95942.67;105191;1287;22466;-78
2022/12/15 11:27:36;;;;;;;70.70;41.70;;;;;;;-1.95;100.00;95941.52;105286;1305;22508;-78
2022/12/15 11:30:13;;;;;;;69.50;40.10;;;;;;;-1.93;100.00;95933.95;105222;1278;22470;-78
2022/12/15 11:32:46;;;;;;;61.80;37.30;;;;;;;-1.94;100.00;95945.47;105524;1296;29440;-78
2022/12/15 11:35:18;;;;;;;70.70;39.70;;;;;;;-1.98;100.00;95948.14;105530;1303;22511;-78
2022/12/15 11:37:52;;;;;;;76.10;41.10;;;;;;;-1.98;100.00;95952.21;105558;1296;25303;-78
2022/12/15 11:40:32;;;;;;;70.00;39.60;;;;;;;-1.98;100.00;95952.97;105261;1302;25394;-78
2022/12/15 11:43:14;;;;;;;66.60;40.00;;;;;;;-1.97;100.00;95947.14;105374;1288;22459;-78
2022/12/15 11:45:51;;;;;;;70.40;38.80;;;;;;;-2.00;100.00;95944.23;105350;1285;22486;-78
2022/12/15 11:48:27;;;;;;;67.60;39.10;;;;;;;-2.04;100.00;95953.52;105510;1296;22453;-78
2022/12/15 11:51:01;;;;;;;58.40;33.90;;;;;;;-2.04;100.00;95957.39;105459;1294;27423;-78
2022/12/15 11:53:50;;;;;;;67.50;38.90;;;;;;;-2.12;100.00;95958.15;105546;1281;22456;-78
2022/12/15 11:56:29;;;;;;;71.20;40.50;;;;;;;-2.26;100.00;95967.45;105343;1303;22458;-78
2022/12/15 11:59:22;;;;;;;72.10;39.40;;;;;;;-2.30;100.00;95977.91;105416;1303;22478;-78
2022/12/15 12:02:09;;;;;;;74.50;42.10;;;;;;;-2.29;100.00;95967.67;105497;1304;27414;-78
2022/12/15 12:04:48;;;;;;;77.10;41.70;;;;;;;-2.34;100.00;95968.25;105538;1295;25412;-78
2022/12/15 12:07:30;;;;;;;70.00;39.90;;;;;;;-2.40;100.00;95970.08;104648;1296;1202122;-78
2022/12/15 12:10:09;;;;;;;71.00;39.40;;;;;;;-2.41;100.00;95974.09;105504;1302;24264;-79
2022/12/15 12:12:43;;;;;;;68.00;38.50;;;;;;;-2.41;100.00;95972.73;105750;1302;28807;-79
2022/12/15 12:15:26;;;;;;;71.90;40.50;;;;;;;-2.37;100.00;95972.55;105787;1304;22817;-79
2022/12/15 12:18:01;;;;;;;85.00;44.30;;;;;;;-2.39;100.00;95979.88;105765;1303;22512;-79
2022/12/15 12:20:41;;;;;;;75.20;41.60;;;;;;;-2.42;100.00;95973.30;105752;1285;22465;-79
2022/12/15 12:23:22;;;;;;;80.80;41.50;;;;;;;-2.41;100.00;95971.40;105567;1302;23833;-79
2022/12/15 12:26:01;;;;;;;85.60;43.50;;;;;;;-2.37;100.00;95970.31;105559;1302;23134;-79
2022/12/15 12:28:39;;;;;;;73.40;40.50;;;;;;;-2.39;100.00;95981.21;105546;1302;22464;-80
2022/12/15 12:31:20;;;;;;;79.50;42.40;;;;;;;-2.43;100.00;95980.85;105650;1294;22522;-79
2022/12/15 12:33:54;;;;;;;89.80;47.50;;;;;;;-2.46;100.00;95975.49;105689;1296;22511;-79
2022/12/15 12:36:23;;;;;;;86.30;46.20;;;;;;;-2.49;100.00;95971.05;105790;1301;25262;-79
2022/12/15 12:38:54;;;;;;;89.80;47.00;;;;;;;-2.50;100.00;95978.77;105782;1294;22509;-79
2022/12/15 12:41:33;;;;;;;87.20;45.20;;;;;;;-2.48;100.00;95971.67;105653;1291;22476;-79
2022/12/15 12:44:08;;;;;;;88.00;47.60;;;;;;;-2.44;100.00;95974.83;105653;1303;22504;-79
2022/12/15 12:46:43;;;;;;;85.60;47.00;;;;;;;-2.43;100.00;95972.79;105577;1303;22500;-79
2022/12/15 12:49:19;;;;;;;87.00;44.10;;;;;;;-2.45;100.00;95968.05;105690;1304;22474;-79
2022/12/15 12:51:53;;;;;;;83.30;44.30;;;;;;;-2.45;100.00;95963.90;105697;1303;22465;-79
2022/12/15 12:54:40;;;;;;;81.60;43.00;;;;;;;-2.42;100.00;95970.94;105743;1287;22575;-79
2022/12/15 12:57:28;;;;;;;80.50;42.20;;;;;;;-2.42;100.00;95982.88;105711;1304;22439;-79
2022/12/15 13:00:00;;;;;;;84.50;42.60;;;;;;;-2.41;100.00;95995.12;105721;1295;33298;-79
2022/12/15 13:02:46;;;;;;;89.40;45.80;;;;;;;-2.36;100.00;95998.23;105645;1303;24228;-79
2022/12/15 13:05:26;;;;;;;85.30;44.60;;;;;;;-2.32;100.00;95998.55;105748;1300;22549;-79
2022/12/15 13:08:15;;;;;;;84.60;44.40;;;;;;;-2.30;100.00;95997.05;105697;1303;24301;-79
2022/12/15 13:10:45;;;;;;;84.90;43.20;;;;;;;-2.29;100.00;95982.14;105725;1304;23531;-79
2022/12/15 13:13:37;;;;;;;70.00;38.80;;;;;;;-2.31;100.00;95981.77;105764;1304;22454;-79
2022/12/15 13:16:11;;;;;;;63.10;36.60;;;;;;;-2.35;100.00;95995.67;105789;1304;22473;-79
2022/12/15 13:19:03;;;;;;;79.40;44.40;;;;;;;-2.39;100.00;96002.00;105796;1294;22467;-79
2022/12/15 13:21:53;;;;;;;78.90;41.20;;;;;;;-2.43;100.00;96001.45;105612;1291;22509;-79
2022/12/15 13:24:36;;;;;;;76.60;40.30;;;;;;;-2.40;100.00;95997.44;105753;1294;22677;-79
2022/12/15 13:27:15;;;;;;;74.70;39.60;;;;;;;-2.36;100.00;95989.72;105559;1288;25389;-79
2022/12/15 13:30:03;;;;;;;75.70;42.20;;;;;;;-2.34;100.00;95997.21;105584;1299;22931;-79
2022/12/15 13:32:36;;;;;;;73.90;38.70;;;;;;;-2.32;100.00;95999.66;105758;1304;22547;-79
2022/12/15 13:35:25;;;;;;;82.50;40.70;;;;;;;-2.34;100.00;95992.54;105679;1303;22602;-79
2022/12/15 13:37:55;;;;;;;78.00;40.50;;;;;;;-2.40;100.00;95981.95;105597;1295;22454;-79
2022/12/15 13:40:53;;;;;;;67.60;37.70;;;;;;;-2.47;100.00;95981.92;105755;1294;22465;-79
2022/12/15 13:43:46;;;;;;;73.00;38.90;;;;;;;-2.47;100.00;95984.36;105524;1303;22483;-79
2022/12/15 13:46:22;;;;;;;80.40;42.10;;;;;;;-2.45;100.00;95982.44;105414;1303;22472;-79
2022/12/15 13:49:03;;;;;;;79.20;41.80;;;;;;;-2.43;100.00;95992.31;105532;1285;22991;-79
2022/12/15 13:51:34;;;;;;;74.30;41.20;;;;;;;-2.42;100.00;95999.93;105422;1297;24964;-79
2022/12/15 13:54:14;;;;;;;84.40;44.30;;;;;;;-2.41;100.00;96008.30;105708;1304;23791;-79